Time;durP1;ratioP1;P1;durP2;ratioP2;P2;SDS_P1;SDS_P2;PMS_P1;PMS_P2;Temp;Humidity;BMP_temperature;BMP_pressure;BME280_temperature;BME280_humidity;BME280_pressure;Samples;Min_cycle;Max_cycle;Signal;HPM_P1;HPM_P2
2021/06/06 00:01:47;;;;;;;5.10;3.78;;;;;;;19.63;60.05;100689.47;6340816;22;20075;-74
2021/06/06 00:04:16;;;;;;;3.92;3.47;;;;;;;19.60;60.20;100690.28;6313100;22;20003;-74
2021/06/06 00:06:42;;;;;;;4.88;4.00;;;;;;;19.58;60.53;100678.56;6341077;22;20002;-74
2021/06/06 00:09:12;;;;;;;4.15;3.75;;;;;;;19.57;60.73;100688.28;6313499;22;20006;-74
2021/06/06 00:11:44;;;;;;;4.28;3.75;;;;;;;19.50;60.70;100679.84;6341310;22;20006;-74
2021/06/06 00:14:15;;;;;;;4.72;4.30;;;;;;;19.58;60.57;100701.16;6313751;22;20407;-74
2021/06/06 00:16:53;;;;;;;4.28;3.90;;;;;;;19.51;61.14;100689.91;6313136;22;20027;-74
2021/06/06 00:19:20;;;;;;;8.93;4.10;;;;;;;19.56;61.17;100689.50;6341077;22;20005;-74
2021/06/06 00:21:47;;;;;;;5.97;4.32;;;;;;;19.52;61.16;100685.88;6312994;22;20006;-74
2021/06/06 00:24:15;;;;;;;4.70;4.30;;;;;;;19.53;61.43;100693.13;6340640;22;20020;-74
2021/06/06 00:26:40;;;;;;;5.07;4.20;;;;;;;19.51;61.07;100684.28;6309486;22;20011;-74
2021/06/06 00:29:06;;;;;;;5.05;4.53;;;;;;;19.54;61.03;100689.06;6309034;22;20023;-74
2021/06/06 00:31:32;;;;;;;5.57;4.88;;;;;;;19.59;60.83;100694.31;6282278;22;20090;-74
2021/06/06 00:33:58;;;;;;;6.43;4.35;;;;;;;19.52;61.04;100675.38;6256720;22;20007;-74
2021/06/06 00:36:26;;;;;;;5.03;4.63;;;;;;;19.46;61.69;100677.03;6309571;22;20083;-74
2021/06/06 00:38:51;;;;;;;6.63;5.88;;;;;;;19.51;60.49;100678.63;6308825;22;20026;-74
2021/06/06 00:41:19;;;;;;;6.28;5.45;;;;;;;19.59;60.64;100681.00;6281850;22;19995;-74
2021/06/06 00:43:46;;;;;;;6.32;5.22;;;;;;;19.44;60.70;100664.53;6309212;22;20053;-74
2021/06/06 00:46:14;;;;;;;7.43;6.78;;;;;;;19.41;60.37;100662.56;6309469;22;20010;-74
2021/06/06 00:48:39;;;;;;;8.80;6.53;;;;;;;19.58;60.13;100672.94;6282176;22;20330;-74
2021/06/06 00:51:17;;;;;;;6.55;5.90;;;;;;;19.60;60.32;100673.34;6282484;22;20018;-74
2021/06/06 00:53:49;;;;;;;8.60;5.95;;;;;;;19.57;60.50;100666.50;6256557;22;20373;-74
2021/06/06 00:56:20;;;;;;;6.75;6.10;;;;;;;19.53;60.54;100670.53;6282081;22;20030;-74
2021/06/06 00:58:48;;;;;;;7.50;6.53;;;;;;;19.30;60.58;100663.41;6282052;22;20399;-74
2021/06/06 01:01:16;;;;;;;7.05;6.35;;;;;;;19.33;60.63;100667.41;6309178;22;20026;-74
2021/06/06 01:03:45;;;;;;;9.13;6.35;;;;;;;19.24;60.52;100658.63;6281699;22;19999;-74
2021/06/06 01:06:16;;;;;;;8.38;6.40;;;;;;;19.24;60.50;100653.78;6282422;22;20100;-74
2021/06/06 01:08:42;;;;;;;8.25;7.22;;;;;;;19.52;59.42;100643.53;6282074;22;20003;-74
2021/06/06 01:11:11;;;;;;;7.20;6.38;;;;;;;19.32;60.12;100644.06;6308798;22;20434;-74
2021/06/06 01:13:54;;;;;;;7.70;6.05;;;;;;;19.30;60.42;100646.50;6281709;22;20010;-74
2021/06/06 01:16:31;;;;;;;7.47;5.95;;;;;;;19.20;60.89;100636.06;6309342;22;20010;-74
2021/06/06 01:18:59;;;;;;;8.00;5.95;;;;;;;19.20;61.37;100633.25;6281930;22;20003;-74
2021/06/06 01:21:40;;;;;;;9.95;6.45;;;;;;;19.01;61.45;100602.72;6308533;22;20422;-74
2021/06/06 01:24:26;;;;;;;7.43;6.43;;;;;;;19.20;60.65;100627.59;6308959;22;19995;-74
2021/06/06 01:27:01;;;;;;;7.47;6.65;;;;;;;19.12;61.23;100634.47;6281578;22;20007;-74
2021/06/06 01:29:57;;;;;;;10.18;6.65;;;;;;;19.08;61.33;100628.06;6282588;22;20386;-74
2021/06/06 01:32:31;;;;;;;6.55;5.95;;;;;;;19.04;61.61;100632.91;6281116;22;20010;-74
2021/06/06 01:35:06;;;;;;;6.95;6.05;;;;;;;18.93;61.81;100620.91;6281355;22;20003;-74
2021/06/06 01:37:34;;;;;;;8.60;6.45;;;;;;;18.98;61.75;100632.53;6308757;22;20043;-74
2021/06/06 01:40:06;;;;;;;9.25;6.38;;;;;;;19.03;61.64;100615.19;6308451;22;20051;-74
2021/06/06 01:42:58;;;;;;;5.78;5.28;;;;;;;18.97;61.82;100610.41;6282456;22;20030;-74
2021/06/06 01:45:50;;;;;;;6.15;5.55;;;;;;;18.95;61.96;100607.19;6309095;22;19999;-74
2021/06/06 01:48:15;;;;;;;6.55;5.00;;;;;;;18.96;61.68;100600.31;6290938;22;20003;-74
2021/06/06 01:50:46;;;;;;;5.18;4.57;;;;;;;18.99;61.81;100599.50;6281148;22;20361;-74
2021/06/06 01:53:14;;;;;;;7.32;5.10;;;;;;;18.96;62.30;100597.50;6281970;22;20425;-74
2021/06/06 01:55:50;;;;;;;4.93;4.25;;;;;;;18.94;61.87;100597.13;6281173;22;20006;-73
2021/06/06 01:58:18;;;;;;;6.15;4.20;;;;;;;18.95;61.58;100601.53;6281231;22;20041;-74
2021/06/06 02:00:53;;;;;;;5.85;3.97;;;;;;;18.94;61.57;100592.28;6281908;22;20011;-74
2021/06/06 02:03:19;;;;;;;9.15;5.28;;;;;;;18.80;62.01;100601.63;6281913;22;20391;-74
2021/06/06 02:05:45;;;;;;;4.40;3.90;;;;;;;18.81;62.21;100597.59;6281808;22;20018;-74
2021/06/06 02:08:14;;;;;;;7.45;4.65;;;;;;;18.71;62.87;100606.09;6309241;22;20003;-73
2021/06/06 02:10:49;;;;;;;4.00;3.70;;;;;;;18.66;63.02;100596.00;6308190;22;20070;-74
2021/06/06 02:13:27;;;;;;;7.13;4.30;;;;;;;18.65;62.86;100583.13;6308818;22;20027;-74
2021/06/06 02:15:58;;;;;;;4.47;4.05;;;;;;;18.59;63.37;100579.94;6308067;22;19999;-74
2021/06/06 02:18:28;;;;;;;4.80;4.35;;;;;;;18.59;63.22;100577.09;6256487;22;20014;-74
2021/06/06 02:20:55;;;;;;;4.40;3.97;;;;;;;18.62;63.57;100569.84;6281050;22;19999;-74
2021/06/06 02:23:26;;;;;;;5.32;3.85;;;;;;;18.62;63.44;100563.41;6281040;22;20074;-73
2021/06/06 02:25:59;;;;;;;5.63;4.43;;;;;;;18.63;63.54;100562.97;6317167;22;20063;-74
2021/06/06 02:28:54;;;;;;;6.10;4.28;;;;;;;18.66;63.26;100567.00;6312709;22;20005;-74
2021/06/06 02:31:37;;;;;;;7.40;4.30;;;;;;;18.72;63.24;100571.84;6339292;22;20100;-74
2021/06/06 02:34:15;;;;;;;4.78;3.92;;;;;;;18.62;63.50;100567.03;6339190;22;20052;-74
2021/06/06 02:36:50;;;;;;;4.18;3.72;;;;;;;18.62;63.58;100569.84;6339212;22;20009;-74
2021/06/06 02:39:25;;;;;;;4.43;4.03;;;;;;;18.72;63.18;100563.38;6312218;22;20007;-74
2021/06/06 02:41:59;;;;;;;4.75;3.95;;;;;;;18.62;63.47;100563.41;6338049;22;20003;-73
2021/06/06 02:44:31;;;;;;;;;;;;;;;18.57;63.66;100559.00;6340901;22;20044;-74
2021/06/06 02:46:59;;;;;;;3.80;3.50;;;;;;;18.43;63.68;100559.84;6340131;22;19898;-74
2021/06/06 02:49:29;;;;;;;4.20;3.85;;;;;;;18.51;63.85;100567.06;6339084;22;20089;-73
2021/06/06 02:52:00;;;;;;;5.55;4.60;;;;;;;18.45;63.91;100556.63;6338145;22;20006;-74
2021/06/06 02:54:39;;;;;;;8.43;5.75;;;;;;;18.44;64.07;100555.03;6338957;22;20442;-74
2021/06/06 02:57:08;;;;;;;6.20;4.90;;;;;;;18.48;63.73;100555.78;6339544;22;20500;-74
2021/06/06 02:59:48;;;;;;;4.95;4.55;;;;;;;18.41;63.88;100561.47;6338715;22;20052;-74
2021/06/06 03:02:19;;;;;;;6.25;4.40;;;;;;;18.33;64.29;100560.69;6340328;22;19999;-74
2021/06/06 03:04:57;;;;;;;7.78;4.93;;;;;;;18.41;64.30;100567.09;6314937;22;20306;-74
2021/06/06 03:07:34;;;;;;;5.03;4.57;;;;;;;18.39;64.48;100552.63;6339953;22;20006;-74
2021/06/06 03:10:00;;;;;;;9.02;4.65;;;;;;;18.33;64.79;100541.78;6341550;22;20006;-74
2021/06/06 03:12:28;;;;;;;5.70;4.78;;;;;;;18.36;64.41;100547.78;6339870;22;20140;-74
2021/06/06 03:14:55;;;;;;;8.57;5.80;;;;;;;18.37;64.69;100550.19;6339786;22;20422;-74
2021/06/06 03:17:32;;;;;;;5.20;4.38;;;;;;;18.38;64.33;100556.66;6339846;22;20414;-74
2021/06/06 03:20:03;;;;;;;5.32;4.72;;;;;;;18.41;64.80;100555.81;6340518;22;20025;-74
2021/06/06 03:22:34;;;;;;;4.82;4.40;;;;;;;18.39;65.13;100544.16;6340167;22;20002;-74
2021/06/06 03:25:11;;;;;;;6.50;5.03;;;;;;;18.49;65.05;100549.78;6339931;22;20034;-74
2021/06/06 03:27:40;;;;;;;8.18;6.60;;;;;;;18.56;64.56;100557.38;6339694;22;20002;-74
2021/06/06 03:30:13;;;;;;;6.18;5.15;;;;;;;18.37;64.85;100526.84;6340081;22;20086;-74
2021/06/06 03:32:40;;;;;;;5.63;5.13;;;;;;;18.53;64.65;100541.28;6340084;22;20002;-74
2021/06/06 03:35:08;;;;;;;10.27;9.27;;;;;;;18.55;64.92;100552.97;6341464;22;20022;-74
2021/06/06 03:37:33;;;;;;;7.97;7.18;;;;;;;18.57;64.52;100573.06;6340857;22;20532;-74
2021/06/06 03:39:59;;;;;;;8.15;6.88;;;;;;;18.54;64.95;100566.25;6339910;22;20022;-74
2021/06/06 03:42:27;;;;;;;8.00;5.50;;;;;;;18.65;64.64;100565.41;6339924;22;20165;-74
2021/06/06 03:44:52;;;;;;;5.70;4.65;;;;;;;18.61;64.91;100562.59;6340733;22;20006;-74
2021/06/06 03:47:18;;;;;;;5.22;4.72;;;;;;;18.55;64.94;100550.94;6339444;22;20026;-74
2021/06/06 03:49:44;;;;;;;6.05;5.55;;;;;;;18.67;64.50;100568.63;6341458;22;20003;-74
2021/06/06 03:52:10;;;;;;;6.50;5.88;;;;;;;18.70;64.71;100556.56;6339475;22;20009;-74
2021/06/06 03:54:35;;;;;;;6.38;5.75;;;;;;;18.68;64.90;100551.31;6340984;22;19998;-74
2021/06/06 03:57:02;;;;;;;10.07;9.18;;;;;;;18.72;64.54;100554.94;6313673;22;20370;-73
2021/06/06 03:59:28;;;;;;;25.20;22.63;;;;;;;18.73;64.41;100550.91;6341692;22;20006;-74
2021/06/06 04:01:54;;;;;;;22.10;19.95;;;;;;;18.73;63.83;100533.97;6340992;22;20280;-74
2021/06/06 04:04:20;;;;;;;17.77;16.00;;;;;;;18.88;63.75;100548.81;6340668;22;20419;-74
2021/06/06 04:06:46;;;;;;;15.80;13.82;;;;;;;18.74;64.02;100551.69;6339306;22;20098;-74
2021/06/06 04:09:12;;;;;;;22.20;20.10;;;;;;;18.78;64.11;100558.13;6340940;22;20029;-74
2021/06/06 04:11:39;;;;;;;20.33;18.25;;;;;;;18.86;64.58;100559.72;6340574;22;20002;-74
2021/06/06 04:14:06;;;;;;;16.65;15.05;;;;;;;18.74;64.22;100558.13;6341241;22;20005;-74
2021/06/06 04:16:32;;;;;;;6.45;5.70;;;;;;;18.86;63.99;100547.63;6339109;22;19998;-74
2021/06/06 04:18:58;;;;;;;11.77;7.15;;;;;;;18.74;64.48;100541.22;6339243;22;20048;-74
2021/06/06 04:21:27;;;;;;;9.18;6.40;;;;;;;18.86;64.03;100533.53;6340823;22;19998;-74
2021/06/06 04:23:53;;;;;;;7.47;6.78;;;;;;;18.94;63.90;100560.47;6339151;22;20092;-74
2021/06/06 04:26:20;;;;;;;8.63;6.57;;;;;;;19.03;63.33;100561.63;6338708;22;20014;-74
2021/06/06 04:28:46;;;;;;;7.32;6.63;;;;;;;19.19;62.40;100547.03;6340760;22;20022;-74
2021/06/06 04:31:12;;;;;;;10.95;6.28;;;;;;;19.36;62.10;100548.13;6312882;22;20009;-74
2021/06/06 04:33:38;;;;;;;6.80;6.15;;;;;;;19.63;61.21;100545.50;6338791;22;20010;-74
2021/06/06 04:36:05;;;;;;;7.63;6.50;;;;;;;19.88;60.00;100548.91;6338936;22;20434;-74
2021/06/06 04:38:31;;;;;;;8.93;6.32;;;;;;;19.95;59.78;100550.06;6339612;22;20013;-74
2021/06/06 04:41:00;;;;;;;5.97;5.43;;;;;;;20.13;59.70;100554.34;6340494;22;20025;-74
2021/06/06 04:43:26;;;;;;;6.38;5.53;;;;;;;20.76;57.63;100551.19;6339435;22;20314;-74
2021/06/06 04:45:52;;;;;;;8.23;5.47;;;;;;;21.23;55.96;100564.69;6340019;22;20077;-74
2021/06/06 04:48:24;;;;;;;9.82;6.18;;;;;;;21.33;55.17;100552.44;6338685;22;20003;-74
2021/06/06 04:50:50;;;;;;;7.80;5.05;;;;;;;21.29;55.23;100558.13;6338761;22;20006;-74
2021/06/06 04:53:16;;;;;;;6.35;5.03;;;;;;;21.28;55.19;100559.34;6338744;22;19998;-74
2021/06/06 04:55:43;;;;;;;5.40;4.93;;;;;;;21.33;55.08;100552.44;6340303;22;19999;-74
2021/06/06 04:58:17;;;;;;;5.63;5.10;;;;;;;21.28;55.55;100553.69;6338749;22;20078;-74
2021/06/06 05:00:43;;;;;;;6.20;5.50;;;;;;;21.19;55.77;100547.75;6340323;22;19999;-74
2021/06/06 05:03:10;;;;;;;7.15;5.43;;;;;;;21.17;55.20;100548.19;6338703;22;20366;-74
2021/06/06 05:05:36;;;;;;;6.22;5.40;;;;;;;20.98;56.17;100536.75;6340981;22;19998;-74
2021/06/06 05:08:04;;;;;;;9.70;6.25;;;;;;;20.97;55.87;100521.03;6338313;22;20025;-74
2021/06/06 05:10:33;;;;;;;6.90;5.70;;;;;;;20.91;56.42;100540.50;6339902;22;19999;-74
2021/06/06 05:12:58;;;;;;;6.25;5.32;;;;;;;20.73;56.68;100537.91;6338675;22;19994;-74
2021/06/06 05:15:24;;;;;;;7.30;6.40;;;;;;;20.63;57.26;100550.16;6340102;22;20002;-74
2021/06/06 05:17:51;;;;;;;6.65;6.00;;;;;;;20.62;58.16;100557.03;6340219;22;19998;-74
2021/06/06 05:20:19;;;;;;;9.15;5.97;;;;;;;20.58;58.59;100547.78;6338702;22;20006;-74
2021/06/06 05:22:45;;;;;;;10.00;6.43;;;;;;;20.55;59.76;100526.03;6338419;22;20033;-74
2021/06/06 05:25:11;;;;;;;6.53;5.22;;;;;;;20.53;59.69;100543.41;6339573;22;20011;-76
2021/06/06 05:27:37;;;;;;;7.75;5.63;;;;;;;20.38;59.53;100539.91;6311985;22;20009;-73
2021/06/06 05:30:09;;;;;;;11.82;6.70;;;;;;;20.22;59.83;100536.88;6312135;22;20078;-74
2021/06/06 05:32:35;;;;;;;8.50;6.47;;;;;;;20.27;60.06;100535.63;6339770;22;20422;-73
2021/06/06 05:35:01;;;;;;;7.43;6.07;;;;;;;20.37;59.41;100532.66;6339911;22;20001;-74
2021/06/06 05:37:27;;;;;;;7.43;6.47;;;;;;;20.23;60.68;100532.81;6313283;22;20007;-74
2021/06/06 05:39:53;;;;;;;6.88;5.05;;;;;;;20.42;59.85;100534.22;6311966;22;20410;-74
2021/06/06 05:42:19;;;;;;;6.57;5.88;;;;;;;20.49;58.56;100547.50;6339268;22;20020;-74
2021/06/06 05:44:44;;;;;;;9.13;5.60;;;;;;;20.45;58.49;100529.75;6339384;22;19998;-74
2021/06/06 05:47:10;;;;;;;5.65;5.05;;;;;;;20.60;58.19;100545.34;6311410;22;20066;-74
2021/06/06 05:49:36;;;;;;;6.50;4.53;;;;;;;20.75;57.24;100545.97;6312110;22;20045;-74
2021/06/06 05:52:02;;;;;;;5.18;4.55;;;;;;;20.83;57.06;100545.47;6311747;22;20064;-74
2021/06/06 05:54:28;;;;;;;6.18;4.18;;;;;;;20.82;56.64;100560.81;6339940;22;20395;-74
2021/06/06 05:56:53;;;;;;;12.20;7.40;;;;;;;20.88;56.62;100559.13;6339219;22;20006;-74
2021/06/06 05:59:22;;;;;;;13.95;10.52;;;;;;;20.91;56.61;100565.94;6339612;22;19999;-74
2021/06/06 06:01:47;;;;;;;7.10;5.55;;;;;;;20.97;56.27;100564.25;6339889;22;20023;-74
2021/06/06 06:04:13;;;;;;;6.43;4.35;;;;;;;21.00;56.52;100562.59;6312344;22;20081;-74
2021/06/06 06:06:39;;;;;;;4.93;4.30;;;;;;;21.18;56.49;100558.28;6339906;22;20003;-74
2021/06/06 06:09:05;;;;;;;7.15;3.70;;;;;;;21.13;56.75;100557.97;6340137;22;19994;-74
2021/06/06 06:11:31;;;;;;;6.47;3.83;;;;;;;21.10;56.90;100542.66;6312134;22;20002;-74
2021/06/06 06:13:56;;;;;;;4.03;3.60;;;;;;;21.12;56.80;100530.91;6339468;22;20021;-74
2021/06/06 06:16:26;;;;;;;6.43;4.47;;;;;;;21.37;56.54;100551.16;6312206;22;19998;-74
2021/06/06 06:18:52;;;;;;;4.13;3.80;;;;;;;21.62;55.94;100552.78;6339083;22;20474;-74
2021/06/06 06:21:19;;;;;;;4.40;3.67;;;;;;;21.85;55.19;100561.31;6339044;22;20026;-74
2021/06/06 06:23:44;;;;;;;7.47;6.57;;;;;;;21.98;55.10;100559.44;6339196;22;19999;-74
2021/06/06 06:26:11;;;;;;;11.60;7.10;;;;;;;22.18;54.72;100562.34;6339167;22;20078;-74
2021/06/06 06:28:37;;;;;;;7.03;6.32;;;;;;;22.30;54.82;100563.75;6311560;22;20030;-74
2021/06/06 06:31:03;;;;;;;4.97;4.47;;;;;;;22.37;54.77;100557.13;6312270;22;20006;-74
2021/06/06 06:33:29;;;;;;;6.20;4.80;;;;;;;22.66;54.11;100569.50;6311611;22;20398;-74
2021/06/06 06:35:54;;;;;;;6.05;5.35;;;;;;;22.72;54.17;100562.09;6339012;22;19995;-74
2021/06/06 06:38:21;;;;;;;5.40;4.40;;;;;;;22.79;54.24;100571.69;6311648;22;20454;-74
2021/06/06 06:40:47;;;;;;;6.10;4.50;;;;;;;22.88;53.61;100569.88;6311502;22;20003;-74
2021/06/06 06:43:12;;;;;;;4.68;3.63;;;;;;;22.64;55.18;100582.53;6311574;22;20014;-74
2021/06/06 06:45:40;;;;;;;3.25;3.05;;;;;;;22.80;52.93;100567.59;6339937;22;20009;-74
2021/06/06 06:48:12;;;;;;;4.38;3.95;;;;;;;22.94;52.71;100573.00;6311588;22;19999;-74
2021/06/06 06:50:38;;;;;;;4.18;3.80;;;;;;;23.42;51.27;100578.00;6311904;22;20418;-74
2021/06/06 06:53:04;;;;;;;5.03;4.53;;;;;;;23.52;50.73;100559.91;6339639;22;19999;-75
2021/06/06 06:55:31;;;;;;;5.28;4.32;;;;;;;24.40;48.65;100575.16;6312172;22;20294;-74
2021/06/06 06:57:57;;;;;;;3.78;3.47;;;;;;;24.33;49.50;100571.66;6339209;22;19994;-74
2021/06/06 07:00:34;;;;;;;5.80;3.88;;;;;;;24.78;48.56;100572.44;6311799;22;20304;-74
2021/06/06 07:03:00;;;;;;;6.35;4.82;;;;;;;25.11;47.32;100582.88;6311769;22;20002;-74
2021/06/06 07:05:26;;;;;;;5.25;4.78;;;;;;;25.32;46.27;100570.81;6285892;22;20045;-74
2021/06/06 07:07:52;;;;;;;6.13;5.50;;;;;;;25.06;46.74;100548.03;6339235;22;20006;-74
2021/06/06 07:10:21;;;;;;;6.88;5.20;;;;;;;25.57;45.71;100556.56;6311442;22;19999;-74
2021/06/06 07:12:47;;;;;;;9.77;3.83;;;;;;;25.81;43.87;100553.38;6311843;22;19998;-75
2021/06/06 07:15:14;;;;;;;3.70;3.40;;;;;;;26.36;42.68;100553.88;6339571;22;20072;-75
2021/06/06 07:17:40;;;;;;;3.78;3.47;;;;;;;26.00;42.41;100555.16;6311764;22;19999;-75
2021/06/06 07:20:10;;;;;;;5.55;3.20;;;;;;;26.96;40.46;100565.13;6339177;22;20069;-75
2021/06/06 07:22:35;;;;;;;6.10;3.22;;;;;;;27.61;39.23;100563.38;6311453;22;19999;-74
2021/06/06 07:25:02;;;;;;;4.70;2.83;;;;;;;28.46;36.70;100558.91;6314478;22;20016;-75
2021/06/06 07:27:30;;;;;;;5.93;2.78;;;;;;;29.10;34.87;100535.91;6339764;22;19998;-74
2021/06/06 07:29:55;;;;;;;4.13;2.50;;;;;;;30.14;32.23;100548.75;6338922;22;20280;-74
2021/06/06 07:32:22;;;;;;;3.28;2.25;;;;;;;28.89;35.07;100546.28;6337194;22;20060;-74
2021/06/06 07:34:48;;;;;;;2.50;2.30;;;;;;;28.38;36.31;100554.78;6337293;22;20006;-75
2021/06/06 07:37:14;;;;;;;2.35;2.15;;;;;;;29.42;34.58;100565.06;6337968;22;19999;-75
2021/06/06 07:39:41;;;;;;;6.28;2.08;;;;;;;28.85;34.07;100556.31;6337147;22;20045;-75
2021/06/06 07:42:12;;;;;;;3.25;2.10;;;;;;;29.21;33.28;100558.31;6338800;22;19994;-75
2021/06/06 07:44:37;;;;;;;5.00;2.35;;;;;;;28.92;34.18;100550.25;6338848;22;20001;-75
2021/06/06 07:47:06;;;;;;;3.00;2.42;;;;;;;29.53;33.57;100553.09;6338825;22;19995;-75
2021/06/06 07:49:33;;;;;;;4.22;2.58;;;;;;;30.35;32.34;100551.78;6338920;22;20002;-75
2021/06/06 07:51:59;;;;;;;2.80;2.17;;;;;;;29.85;32.45;100545.75;6340239;22;19995;-75
2021/06/06 07:54:25;;;;;;;3.55;2.45;;;;;;;30.45;31.67;100564.75;6338935;22;20044;-76
2021/06/06 07:56:53;;;;;;;3.22;2.60;;;;;;;29.82;32.73;100556.13;6339005;22;20028;-75
2021/06/06 07:59:18;;;;;;;4.80;2.72;;;;;;;28.41;34.91;100562.41;6340020;22;19994;-75
2021/06/06 08:01:44;;;;;;;4.80;2.42;;;;;;;28.35;34.73;100541.44;6338744;22;20010;-75
2021/06/06 08:04:09;;;;;;;3.13;2.47;;;;;;;28.19;35.11;100556.81;6339293;22;20057;-75
2021/06/06 08:06:35;;;;;;;3.35;2.53;;;;;;;27.79;36.13;100546.28;6340394;22;20415;-75
2021/06/06 08:09:01;;;;;;;4.88;3.03;;;;;;;27.18;37.46;100552.88;6340735;22;20090;-75
2021/06/06 08:11:27;;;;;;;8.82;3.88;;;;;;;26.86;37.63;100537.78;6338609;22;20089;-75
2021/06/06 08:13:53;;;;;;;3.70;3.38;;;;;;;26.26;38.98;100523.66;6340222;22;20041;-75
2021/06/06 08:16:20;;;;;;;5.75;3.30;;;;;;;26.75;38.08;100529.63;6339885;22;20019;-75
2021/06/06 08:18:46;;;;;;;4.93;3.25;;;;;;;26.57;38.40;100530.28;6340859;22;20003;-75
2021/06/06 08:21:20;;;;;;;4.45;3.60;;;;;;;26.25;38.85;100522.09;6338689;22;19999;-75
2021/06/06 08:23:46;;;;;;;5.95;3.30;;;;;;;26.26;38.95;100535.06;6337966;22;20014;-73
2021/06/06 08:26:14;;;;;;;8.50;3.75;;;;;;;26.33;38.31;100523.44;6338031;22;20094;-74
2021/06/06 08:28:40;;;;;;;4.15;2.75;;;;;;;26.07;38.88;100546.34;6340596;22;19999;-75
2021/06/06 08:31:10;;;;;;;5.75;3.05;;;;;;;25.57;40.79;100539.47;6339307;22;19998;-74
2021/06/06 08:33:39;;;;;;;5.95;3.15;;;;;;;25.70;40.43;100538.66;6339151;22;20402;-73
2021/06/06 08:36:17;;;;;;;4.50;3.42;;;;;;;25.73;40.26;100549.94;6340198;22;19994;-74
2021/06/06 08:38:43;;;;;;;5.90;3.78;;;;;;;25.70;40.48;100550.06;6338306;22;20479;-74
2021/06/06 08:41:21;;;;;;;5.10;3.53;;;;;;;25.46;41.01;100547.59;6339046;22;20031;-75
2021/06/06 08:44:00;;;;;;;6.28;3.30;;;;;;;25.28;40.98;100541.66;6338990;22;20002;-75
2021/06/06 08:46:30;;;;;;;4.43;3.20;;;;;;;25.46;40.99;100553.28;6338649;22;20010;-75
2021/06/06 08:48:56;;;;;;;6.10;3.38;;;;;;;25.84;40.45;100555.31;6338042;22;20003;-75
2021/06/06 08:51:41;;;;;;;7.38;3.92;;;;;;;25.80;40.33;100566.81;6337948;22;20018;-75
2021/06/06 08:54:27;;;;;;;6.68;3.50;;;;;;;25.78;40.95;100562.81;6336854;22;20077;-75
2021/06/06 08:57:02;;;;;;;6.65;3.63;;;;;;;25.81;40.59;100559.06;6338889;22;20076;-75
2021/06/06 08:59:41;;;;;;;4.53;3.28;;;;;;;26.27;39.91;100566.00;6340181;22;20006;-75
2021/06/06 09:02:26;;;;;;;4.88;3.65;;;;;;;26.18;39.87;100562.28;6340230;22;20403;-75
2021/06/06 09:04:53;;;;;;;5.07;3.25;;;;;;;26.31;39.33;100565.88;6338761;22;20015;-75
2021/06/06 09:07:32;;;;;;;4.32;2.95;;;;;;;26.16;39.63;100570.50;6338572;22;19999;-75
2021/06/06 09:10:10;;;;;;;8.93;3.97;;;;;;;26.24;39.90;100577.53;6337836;22;20009;-75
2021/06/06 09:12:35;;;;;;;4.88;2.80;;;;;;;26.16;39.87;100561.94;6338369;22;20370;-74
2021/06/06 09:15:01;;;;;;;6.72;4.07;;;;;;;26.89;39.12;100556.81;6339720;22;19995;-75
2021/06/06 09:17:56;;;;;;;4.57;3.20;;;;;;;27.26;38.30;100566.38;6338556;22;20027;-74
2021/06/06 09:20:32;;;;;;;3.97;2.70;;;;;;;27.86;37.12;100533.75;6337624;22;20082;-75
2021/06/06 09:23:06;;;;;;;4.72;2.40;;;;;;;29.23;34.99;100552.88;6338959;22;20402;-74
2021/06/06 09:25:36;;;;;;;3.15;1.90;;;;;;;30.39;32.31;100547.44;6339137;22;20037;-73
2021/06/06 09:28:20;;;;;;;7.22;2.30;;;;;;;31.19;30.53;100545.50;6312424;22;20089;-74
2021/06/06 09:31:08;;;;;;;5.40;2.10;;;;;;;32.09;28.54;100543.97;6339737;22;19995;-72
2021/06/06 09:33:44;;;;;;;3.63;2.20;;;;;;;31.95;28.76;100548.50;6339341;22;19998;-72
2021/06/06 09:36:35;;;;;;;3.65;2.20;;;;;;;30.87;30.22;100543.66;6312258;22;19998;-74
2021/06/06 09:39:01;;;;;;;4.78;1.95;;;;;;;30.01;30.73;100537.50;6340892;22;19999;-74
2021/06/06 09:41:29;;;;;;;4.78;2.00;;;;;;;29.64;30.08;100542.69;6313886;22;20083;-75
2021/06/06 09:44:00;;;;;;;2.15;1.75;;;;;;;29.78;29.17;100543.25;6314969;22;20002;-78
2021/06/06 09:46:33;;;;;;;1.88;1.35;;;;;;;29.65;29.91;100550.00;6312331;22;20032;-74
2021/06/06 09:49:05;;;;;;;;;;;;;;;29.16;31.71;100542.56;6340304;22;19999;-73
2021/06/06 09:51:34;;;;;;;3.03;1.88;;;;;;;29.91;30.75;100543.78;6311771;22;19989;-73
2021/06/06 09:54:11;;;;;;;3.58;1.65;;;;;;;30.83;28.86;100545.91;6311354;22;20005;-74
2021/06/06 09:56:40;;;;;;;2.35;1.60;;;;;;;30.99;27.47;100533.94;6311161;22;20085;-73
2021/06/06 09:59:22;;;;;;;3.83;1.85;;;;;;;31.75;27.21;100534.09;6312410;22;20415;-73
2021/06/06 10:02:14;;;;;;;2.08;1.42;;;;;;;32.58;25.92;100530.69;6312169;22;20006;-74
2021/06/06 10:04:44;;;;;;;2.55;1.88;;;;;;;32.52;26.31;100538.47;6339363;22;19995;-73
2021/06/06 10:07:28;;;;;;;3.63;1.73;;;;;;;32.98;24.90;100537.66;6339889;22;20002;-72
2021/06/06 10:09:57;;;;;;;2.88;1.50;;;;;;;32.57;22.97;100532.00;6311662;22;20374;-73
2021/06/06 10:12:40;;;;;;;1.77;1.23;;;;;;;32.76;23.91;100532.44;6286915;22;20002;-73
2021/06/06 10:15:11;;;;;;;5.38;2.25;;;;;;;32.20;25.66;100532.59;6311966;22;20311;-73
2021/06/06 10:17:49;;;;;;;2.00;1.80;;;;;;;32.26;25.44;100521.16;6339101;22;19998;-73
2021/06/06 10:20:24;;;;;;;1.73;1.63;;;;;;;31.55;26.19;100511.84;6339547;22;19998;-73
2021/06/06 10:23:05;;;;;;;2.53;1.55;;;;;;;31.68;26.24;100491.34;6312231;22;20005;-72
2021/06/06 10:25:52;;;;;;;2.83;1.77;;;;;;;30.95;27.76;100481.66;6322284;22;20422;-73
2021/06/06 10:28:40;;;;;;;2.63;1.60;;;;;;;29.82;30.27;100486.50;6338094;22;20003;-74
2021/06/06 10:31:14;;;;;;;3.35;2.22;;;;;;;29.83;30.56;100473.72;6337805;22;19999;-74
2021/06/06 10:33:45;;;;;;;2.40;1.83;;;;;;;29.78;30.49;100465.84;6338038;22;20003;-74
2021/06/06 10:36:15;;;;;;;4.13;1.77;;;;;;;30.26;30.06;100467.34;6339690;22;20025;-73
2021/06/06 10:38:41;;;;;;;3.85;1.95;;;;;;;30.03;28.99;100448.06;6338054;22;20010;-74
2021/06/06 10:41:21;;;;;;;4.40;1.52;;;;;;;29.52;30.62;100449.09;6337951;22;20003;-74
2021/06/06 10:43:54;;;;;;;2.70;1.92;;;;;;;29.56;30.81;100443.97;6339570;22;19999;-73
2021/06/06 10:46:48;;;;;;;3.33;1.73;;;;;;;28.86;29.56;100434.75;6340141;22;20476;-73
2021/06/06 10:49:28;;;;;;;10.32;1.95;;;;;;;28.47;30.50;100428.88;6338520;22;20009;-73
2021/06/06 10:52:00;;;;;;;3.42;1.85;;;;;;;28.91;29.95;100440.63;6338646;22;20311;-73
2021/06/06 10:54:37;;;;;;;3.35;2.33;;;;;;;29.28;29.93;100451.16;6339258;22;20099;-73
2021/06/06 10:57:23;;;;;;;6.55;5.75;;;;;;;29.65;33.21;100466.84;6337617;22;20005;-73
2021/06/06 10:59:53;;;;;;;6.93;3.00;;;;;;;29.63;34.01;100466.56;6338810;22;20002;-72
2021/06/06 11:02:35;;;;;;;5.15;3.15;;;;;;;29.85;33.84;100471.97;6337712;22;20002;-73
2021/06/06 11:05:04;;;;;;;7.90;3.37;;;;;;;29.93;33.67;100478.13;6338016;22;20486;-73
2021/06/06 11:07:30;;;;;;;6.20;3.15;;;;;;;29.97;33.68;100470.13;6336879;22;20005;-73
2021/06/06 11:10:32;;;;;;;5.40;2.50;;;;;;;30.12;33.44;100479.59;6337738;22;20073;-73
2021/06/06 11:13:12;;;;;;;8.75;2.80;;;;;;;30.23;33.12;100484.75;6339942;22;20290;-74
2021/06/06 11:16:03;;;;;;;3.67;2.50;;;;;;;29.98;33.61;100480.31;6338584;22;20030;-73
2021/06/06 11:18:29;;;;;;;3.50;2.60;;;;;;;30.04;33.23;100469.72;6338636;22;20081;-72
2021/06/06 11:21:07;;;;;;;5.25;2.30;;;;;;;29.68;33.73;100480.22;6337785;22;20335;-72
2021/06/06 11:23:32;;;;;;;3.47;2.80;;;;;;;29.62;30.22;100452.72;6340200;22;19998;-73
2021/06/06 11:25:58;;;;;;;2.40;1.60;;;;;;;29.33;29.51;100464.81;6339054;22;20092;-74
2021/06/06 11:28:38;;;;;;;2.97;1.50;;;;;;;29.47;28.72;100456.28;6341480;22;19998;-74
2021/06/06 11:31:20;;;;;;;4.10;1.65;;;;;;;29.38;29.34;100456.34;6340073;22;20082;-72
2021/06/06 11:33:59;;;;;;;2.10;1.75;;;;;;;28.98;30.72;100456.72;6340525;22;20536;-71
2021/06/06 11:36:37;;;;;;;2.67;2.30;;;;;;;29.03;31.08;100456.06;6338971;22;19994;-73
2021/06/06 11:39:13;;;;;;;3.00;1.70;;;;;;;28.63;30.83;100457.13;6340120;22;20056;-73
2021/06/06 11:41:42;;;;;;;1.60;1.50;;;;;;;28.41;29.97;100442.22;6339337;22;20003;-72